Skip Navigation LinksHome page > Weather > Current weather Skip Navigation Links

Current Weather

Ndjamena, Chad

For information only: do not use for flight planning or navigation.
Latest weather
Observation time Sunday, November 29, 2015 8:00 PM WAT
Local time Sunday, November 29, 2015 8:23 PM WAT
Flight conditions Marginal Visual Meteorological Conditions
Wind direction Northwest (320°)
Wind speed 3 mph
Visibility 3.7 mi.
Sky condition
Ceiling unlimited
Temperature 82°F
Dewpoint 36°F
Altimeter 29.91 in.Hg
Derived measurements
Relative humidity 19%
Heat index 82°F
Density altitude 1909 ft.
No significant changes expected in the next two hours.
METAR FTTJ 291900Z 32003KT 6000 NSC 28/02 Q1013 NOSIG


Location code

InnerDrive.Weather 4.0.5722.1 Release CLR 4.0.30319.34014
Copyright ©2015 Inner Drive Technology. All rights reserved. Portions Copyright ©1986-2015 David Braverman.

Find weather

Site navigation

Skip Navigation Links

Place info

Page info

PayPal - The safer, easier way to pay online!

Return home.

Copyright ©2015 Inner Drive Technology. Purveyors of fine, hand-crafted computer software. Page printed 2015-11-29T19:23:38 UTC.